Time;durP1;ratioP1;P1;durP2;ratioP2;P2;SDS_P1;SDS_P2;PMS_P1;PMS_P2;Temp;Humidity;BMP_temperature;BMP_pressure;BME280_temperature;BME280_humidity;BME280_pressure;Samples;Min_cycle;Max_cycle;Signal;HPM_P1;HPM_P2
2024/01/09 00:02:13;;;;;;;15.68;14.88;;;;;;;;;;5034046;28;20017;-56
2024/01/09 00:04:38;;;;;;;15.70;14.90;;;;;;;;;;5032960;28;20026;-55
2024/01/09 00:07:04;;;;;;;16.70;15.80;;;;;;;;;;5031313;28;20028;-57
2024/01/09 00:09:29;;;;;;;14.95;14.25;;;;;;;;;;5032418;28;20495;-54
2024/01/09 00:11:54;;;;;;;15.00;14.20;;;;;;;;;;5032461;28;20113;-56
2024/01/09 00:14:20;;;;;;;15.05;14.25;;;;;;;;;;5032346;28;20042;-57
2024/01/09 00:16:45;;;;;;;15.45;14.65;;;;;;;;;;5035469;28;20058;-55
2024/01/09 00:19:10;;;;;;;15.65;14.85;;;;;;;;;;5031543;28;20085;-55
2024/01/09 00:21:36;;;;;;;15.20;14.40;;;;;;;;;;5025956;28;20535;-57
2024/01/09 00:24:02;;;;;;;15.35;14.55;;;;;;;;;;5030190;28;20059;-57
2024/01/09 00:26:27;;;;;;;15.98;15.18;;;;;;;;;;5032986;28;20041;-54
2024/01/09 00:28:53;;;;;;;15.13;14.40;;;;;;;;;;5032372;28;20021;-59
2024/01/09 00:31:20;;;;;;;16.00;15.10;;;;;;;;;;5031980;28;20139;-52
2024/01/09 00:33:45;;;;;;;15.85;15.05;;;;;;;;;;5032232;28;20109;-56
2024/01/09 00:36:11;;;;;;;15.60;14.80;;;;;;;;;;5033386;28;20041;-56
2024/01/09 00:38:36;;;;;;;15.82;15.02;;;;;;;;;;5020673;28;20021;-57
2024/01/09 00:41:01;;;;;;;15.68;14.88;;;;;;;;;;5031629;28;20035;-56
2024/01/09 00:43:27;;;;;;;17.77;16.88;;;;;;;;;;5037979;28;20033;-56
2024/01/09 00:45:52;;;;;;;16.20;15.27;;;;;;;;;;5026693;28;20022;-55
2024/01/09 00:48:17;;;;;;;16.08;15.27;;;;;;;;;;5037588;28;20099;-55
2024/01/09 00:50:43;;;;;;;15.65;14.85;;;;;;;;;;5030036;28;20028;-54
2024/01/09 00:53:08;;;;;;;19.73;18.58;;;;;;;;;;5030351;28;20112;-56
2024/01/09 00:55:33;;;;;;;18.27;17.27;;;;;;;;;;5035221;28;20040;-56
2024/01/09 00:57:59;;;;;;;16.38;15.57;;;;;;;;;;5033393;28;20029;-55
2024/01/09 01:00:24;;;;;;;16.25;15.43;;;;;;;;;;5034103;28;20025;-56
2024/01/09 01:02:49;;;;;;;18.00;17.10;;;;;;;;;;5044313;28;20033;-54
2024/01/09 01:05:15;;;;;;;16.80;15.98;;;;;;;;;;5031283;28;20056;-53
2024/01/09 01:07:41;;;;;;;17.85;16.95;;;;;;;;;;5032567;28;20104;-56
2024/01/09 01:10:06;;;;;;;17.73;16.83;;;;;;;;;;5029223;28;20018;-57
2024/01/09 01:12:31;;;;;;;18.10;17.20;;;;;;;;;;5030138;28;20014;-54
2024/01/09 01:14:57;;;;;;;18.48;17.48;;;;;;;;;;5030247;28;20033;-55
2024/01/09 01:17:22;;;;;;;16.92;16.02;;;;;;;;;;5029487;28;20053;-56
2024/01/09 01:19:47;;;;;;;18.02;17.13;;;;;;;;;;5034858;28;20021;-56
2024/01/09 01:22:13;;;;;;;18.05;17.08;;;;;;;;;;5030841;28;20029;-59
2024/01/09 01:24:38;;;;;;;18.10;17.20;;;;;;;;;;5030531;28;20361;-56
2024/01/09 01:27:04;;;;;;;19.65;18.45;;;;;;;;;;5027943;28;20092;-55
2024/01/09 01:29:29;;;;;;;18.55;17.65;;;;;;;;;;5021781;28;20022;-55
2024/01/09 01:31:54;;;;;;;18.42;17.50;;;;;;;;;;5029368;28;20022;-56
2024/01/09 01:34:20;;;;;;;17.52;16.65;;;;;;;;;;5030638;28;20141;-57
2024/01/09 01:36:45;;;;;;;18.27;17.38;;;;;;;;;;5025258;28;20040;-55
2024/01/09 01:39:10;;;;;;;18.45;17.52;;;;;;;;;;5029367;28;20028;-57
2024/01/09 01:41:36;;;;;;;18.90;17.90;;;;;;;;;;5033921;28;20018;-56
2024/01/09 01:44:01;;;;;;;18.45;17.48;;;;;;;;;;5030587;28;20030;-56
2024/01/09 01:46:28;;;;;;;21.38;20.17;;;;;;;;;;5026936;28;20427;-56
2024/01/09 01:48:54;;;;;;;18.23;17.33;;;;;;;;;;5031313;28;20029;-55
2024/01/09 01:51:19;;;;;;;18.75;17.85;;;;;;;;;;5030899;28;20022;-55
2024/01/09 01:53:45;;;;;;;19.92;18.83;;;;;;;;;;5031579;28;20022;-56
2024/01/09 01:56:10;;;;;;;19.77;18.77;;;;;;;;;;5032064;28;20040;-56
2024/01/09 01:58:36;;;;;;;20.10;19.00;;;;;;;;;;5032977;28;20034;-55
2024/01/09 02:01:01;;;;;;;18.38;17.40;;;;;;;;;;5029341;28;20030;-57
2024/01/09 02:03:27;;;;;;;20.65;19.65;;;;;;;;;;5025618;28;20362;-56
2024/01/09 02:05:53;;;;;;;20.90;19.80;;;;;;;;;;5030481;28;20124;-58
2024/01/09 02:08:19;;;;;;;19.25;18.25;;;;;;;;;;5030455;28;20030;-52
2024/01/09 02:10:45;;;;;;;21.02;19.83;;;;;;;;;;5025771;28;20048;-57
2024/01/09 02:13:10;;;;;;;20.35;19.25;;;;;;;;;;5030647;28;20029;-58
2024/01/09 02:15:36;;;;;;;19.95;18.90;;;;;;;;;;5033329;28;20084;-57
2024/01/09 02:18:02;;;;;;;20.80;19.70;;;;;;;;;;5030399;28;20060;-56
2024/01/09 02:20:27;;;;;;;19.63;18.63;;;;;;;;;;5030646;28;20029;-56
2024/01/09 02:22:53;;;;;;;20.13;19.13;;;;;;;;;;5027780;28;20037;-55
2024/01/09 02:25:18;;;;;;;20.20;19.23;;;;;;;;;;5029318;28;20075;-55
2024/01/09 02:27:46;;;;;;;21.05;19.98;;;;;;;;;;5030521;28;20075;-56
2024/01/09 02:30:12;;;;;;;21.00;19.90;;;;;;;;;;5030857;28;20477;-59
2024/01/09 02:32:38;;;;;;;20.10;19.10;;;;;;;;;;5021206;28;20052;-58
2024/01/09 02:35:03;;;;;;;20.92;19.83;;;;;;;;;;5029804;28;20480;-57
2024/01/09 02:37:29;;;;;;;21.30;20.08;;;;;;;;;;5026997;28;20397;-57
2024/01/09 02:39:58;;;;;;;21.55;20.45;;;;;;;;;;5030260;28;20113;-55
2024/01/09 02:42:24;;;;;;;19.77;18.77;;;;;;;;;;5025480;28;20037;-57
2024/01/09 02:44:53;;;;;;;22.52;21.35;;;;;;;;;;5032090;28;20025;-54
2024/01/09 02:47:19;;;;;;;21.02;20.00;;;;;;;;;;5036611;28;20028;-52
2024/01/09 02:49:44;;;;;;;21.52;20.42;;;;;;;;;;5034062;28;20021;-54
2024/01/09 02:52:09;;;;;;;22.77;21.60;;;;;;;;;;5025179;28;20113;-54
2024/01/09 02:54:35;;;;;;;21.02;20.00;;;;;;;;;;5045961;28;20514;-53
2024/01/09 02:57:00;;;;;;;24.10;22.90;;;;;;;;;;5033614;28;20045;-56
2024/01/09 02:59:26;;;;;;;23.15;21.98;;;;;;;;;;5033745;28;20033;-56
2024/01/09 03:01:51;;;;;;;23.40;22.10;;;;;;;;;;5033257;28;20029;-56
2024/01/09 03:04:17;;;;;;;20.92;19.92;;;;;;;;;;5032727;28;20076;-55
2024/01/09 03:06:42;;;;;;;21.10;20.05;;;;;;;;;;5033097;28;20013;-56
2024/01/09 03:09:08;;;;;;;22.75;21.55;;;;;;;;;;5033205;28;20084;-57
2024/01/09 03:11:33;;;;;;;23.10;21.90;;;;;;;;;;5043682;28;20510;-56
2024/01/09 03:13:58;;;;;;;22.55;21.35;;;;;;;;;;5034519;28;20097;-55
2024/01/09 03:16:24;;;;;;;22.98;21.77;;;;;;;;;;5035706;28;20033;-54
2024/01/09 03:18:49;;;;;;;24.33;23.13;;;;;;;;;;5033079;28;20033;-54
2024/01/09 03:21:14;;;;;;;22.60;21.50;;;;;;;;;;5033458;28;20079;-56
2024/01/09 03:23:40;;;;;;;22.35;21.25;;;;;;;;;;5035738;28;20042;-53
2024/01/09 03:26:05;;;;;;;26.00;24.60;;;;;;;;;;5033533;28;20056;-57
2024/01/09 03:28:31;;;;;;;25.60;24.30;;;;;;;;;;5033581;28;20409;-58
2024/01/09 03:30:56;;;;;;;24.13;22.92;;;;;;;;;;5038277;28;20032;-56
2024/01/09 03:33:21;;;;;;;25.27;24.05;;;;;;;;;;5039177;28;20021;-56
2024/01/09 03:35:47;;;;;;;24.13;22.92;;;;;;;;;;5026039;28;20022;-58
2024/01/09 03:38:12;;;;;;;26.35;25.05;;;;;;;;;;5025857;28;20025;-56
2024/01/09 03:40:38;;;;;;;25.70;24.35;;;;;;;;;;5037885;28;20539;-58
2024/01/09 03:43:05;;;;;;;26.35;24.98;;;;;;;;;;5033718;28;20036;-55
2024/01/09 03:45:31;;;;;;;25.48;24.17;;;;;;;;;;5037142;28;20033;-55
2024/01/09 03:47:56;;;;;;;25.63;24.33;;;;;;;;;;5033235;28;20029;-55
2024/01/09 03:50:22;;;;;;;27.58;26.17;;;;;;;;;;5032655;28;20018;-54
2024/01/09 03:52:47;;;;;;;27.95;26.65;;;;;;;;;;5032181;28;20493;-55
2024/01/09 03:55:14;;;;;;;27.52;26.15;;;;;;;;;;5032275;28;20033;-57
2024/01/09 03:57:40;;;;;;;27.08;25.73;;;;;;;;;;5032723;28;20079;-57
2024/01/09 04:00:06;;;;;;;28.95;27.45;;;;;;;;;;5042737;28;20040;-54
2024/01/09 04:02:31;;;;;;;31.80;30.23;;;;;;;;;;5039553;28;20025;-55
2024/01/09 04:04:57;;;;;;;29.58;28.08;;;;;;;;;;5034079;28;20029;-58
2024/01/09 04:07:22;;;;;;;29.55;28.05;;;;;;;;;;5020947;28;20079;-58
2024/01/09 04:09:47;;;;;;;31.88;30.27;;;;;;;;;;5029600;28;20025;-58
2024/01/09 04:12:13;;;;;;;30.58;28.98;;;;;;;;;;5032219;28;20028;-57
2024/01/09 04:14:38;;;;;;;31.98;30.30;;;;;;;;;;5031761;28;20500;-56
2024/01/09 04:17:03;;;;;;;30.08;28.48;;;;;;;;;;5029808;28;20467;-57
2024/01/09 04:19:29;;;;;;;31.52;29.92;;;;;;;;;;5034989;28;20022;-56
2024/01/09 04:21:54;;;;;;;30.40;28.90;;;;;;;;;;5025688;28;20108;-56
2024/01/09 04:24:19;;;;;;;30.50;28.95;;;;;;;;;;5030581;28;20032;-57
2024/01/09 04:26:45;;;;;;;33.08;31.42;;;;;;;;;;5036324;28;20029;-58
2024/01/09 04:29:10;;;;;;;33.53;31.75;;;;;;;;;;5035927;28;20021;-56
2024/01/09 04:31:36;;;;;;;33.30;31.52;;;;;;;;;;5029558;28;20017;-54
2024/01/09 04:34:01;;;;;;;33.90;32.17;;;;;;;;;;5024065;28;20068;-58
2024/01/09 04:36:26;;;;;;;32.25;30.58;;;;;;;;;;5024891;28;20481;-56
2024/01/09 04:38:52;;;;;;;33.67;31.80;;;;;;;;;;5029177;28;20025;-56
2024/01/09 04:41:17;;;;;;;35.28;33.45;;;;;;;;;;5031518;28;20029;-56
2024/01/09 04:43:45;;;;;;;37.08;35.15;;;;;;;;;;5031373;28;20487;-58
2024/01/09 04:46:11;;;;;;;34.17;32.33;;;;;;;;;;5030695;28;20029;-57
2024/01/09 04:48:36;;;;;;;36.40;34.53;;;;;;;;;;5029940;28;20035;-55
2024/01/09 04:51:03;;;;;;;35.13;33.33;;;;;;;;;;5024557;28;20050;-54
2024/01/09 04:53:28;;;;;;;34.30;32.60;;;;;;;;;;5024724;28;20560;-54
2024/01/09 04:55:54;;;;;;;35.67;33.85;;;;;;;;;;5031289;28;20104;-55
2024/01/09 04:58:19;;;;;;;34.17;32.47;;;;;;;;;;5031619;28;20030;-53
2024/01/09 05:00:45;;;;;;;34.55;32.80;;;;;;;;;;5040574;28;20125;-56
2024/01/09 05:03:10;;;;;;;36.10;34.20;;;;;;;;;;5025665;28;20067;-57
2024/01/09 05:05:36;;;;;;;38.75;36.67;;;;;;;;;;5031605;28;20025;-56
2024/01/09 05:08:01;;;;;;;36.72;34.83;;;;;;;;;;5028900;28;20074;-56
2024/01/09 05:10:30;;;;;;;37.88;35.97;;;;;;;;;;5032872;28;20108;-55
2024/01/09 05:12:55;;;;;;;36.78;34.97;;;;;;;;;;5034799;28;20474;-55
2024/01/09 05:15:20;;;;;;;39.85;37.90;;;;;;;;;;5031392;28;20124;-55
2024/01/09 05:17:46;;;;;;;38.60;36.67;;;;;;;;;;5037483;28;20382;-57
2024/01/09 05:20:11;;;;;;;38.65;36.70;;;;;;;;;;5030961;28;20396;-55
2024/01/09 05:22:37;;;;;;;40.53;38.40;;;;;;;;;;5031602;28;20025;-56
2024/01/09 05:25:03;;;;;;;39.72;37.63;;;;;;;;;;5029635;28;20040;-56
2024/01/09 05:27:28;;;;;;;43.53;41.30;;;;;;;;;;5027208;28;20086;-57
2024/01/09 05:29:53;;;;;;;44.10;41.78;;;;;;;;;;5030828;28;20461;-54
2024/01/09 05:32:19;;;;;;;41.50;39.30;;;;;;;;;;5034065;28;20044;-55
2024/01/09 05:34:44;;;;;;;48.22;45.78;;;;;;;;;;5034566;28;20029;-54
2024/01/09 05:37:09;;;;;;;43.53;41.22;;;;;;;;;;5030204;28;20044;-58
2024/01/09 05:39:35;;;;;;;47.30;44.80;;;;;;;;;;5027908;28;20021;-55
2024/01/09 05:42:00;;;;;;;42.95;40.70;;;;;;;;;;5026876;28;20052;-57
2024/01/09 05:44:26;;;;;;;45.67;43.25;;;;;;;;;;5027069;28;20481;-56
2024/01/09 05:46:51;;;;;;;45.83;43.53;;;;;;;;;;5028210;28;20407;-58
2024/01/09 05:49:16;;;;;;;40.72;38.70;;;;;;;;;;5032263;28;20029;-57
2024/01/09 05:51:42;;;;;;;42.70;40.60;;;;;;;;;;5035109;28;20668;-57
2024/01/09 05:54:07;;;;;;;44.28;41.95;;;;;;;;;;5048957;28;20388;-54
2024/01/09 05:56:32;;;;;;;49.40;46.58;;;;;;;;;;5031374;28;20025;-54
2024/01/09 05:58:58;;;;;;;45.10;42.80;;;;;;;;;;5027906;28;20446;-58
2024/01/09 06:01:23;;;;;;;47.97;45.53;;;;;;;;;;5033197;28;20354;-56
2024/01/09 06:03:48;;;;;;;43.85;41.65;;;;;;;;;;5032068;28;20071;-54
2024/01/09 06:06:13;;;;;;;44.90;42.60;;;;;;;;;;5026517;28;20396;-54
2024/01/09 06:08:39;;;;;;;39.75;37.75;;;;;;;;;;5031520;28;20037;-57
2024/01/09 06:11:04;;;;;;;39.47;37.40;;;;;;;;;;5041743;28;20392;-55
2024/01/09 06:13:29;;;;;;;36.58;34.78;;;;;;;;;;5035985;28;20453;-55
2024/01/09 06:15:55;;;;;;;35.40;33.60;;;;;;;;;;5034655;28;20385;-57
2024/01/09 06:18:20;;;;;;;35.67;33.88;;;;;;;;;;5026234;28;20139;-56
2024/01/09 06:20:45;;;;;;;38.65;36.60;;;;;;;;;;5033359;28;20034;-56
2024/01/09 06:23:11;;;;;;;35.42;33.53;;;;;;;;;;5022480;28;20033;-53
2024/01/09 06:25:36;;;;;;;36.13;34.28;;;;;;;;;;5027821;28;20021;-57
2024/01/09 06:28:02;;;;;;;32.95;31.25;;;;;;;;;;5034982;28;20454;-54
2024/01/09 06:30:27;;;;;;;30.58;29.05;;;;;;;;;;5030265;28;20033;-60
2024/01/09 06:32:52;;;;;;;25.38;24.08;;;;;;;;;;5031967;28;20040;-57
2024/01/09 06:35:18;;;;;;;20.08;18.98;;;;;;;;;;5046995;28;20404;-53
2024/01/09 06:37:44;;;;;;;16.40;15.50;;;;;;;;;;5038947;28;20029;-55
2024/01/09 06:40:09;;;;;;;15.68;14.75;;;;;;;;;;5034566;28;20437;-57
2024/01/09 06:42:34;;;;;;;13.60;12.90;;;;;;;;;;5044246;28;20033;-51
2024/01/09 06:45:00;;;;;;;13.15;12.45;;;;;;;;;;5038025;28;20021;-55
2024/01/09 06:47:25;;;;;;;11.73;11.10;;;;;;;;;;5027526;28;20056;-52
2024/01/09 06:49:50;;;;;;;10.73;10.23;;;;;;;;;;5036859;28;20440;-55
2024/01/09 06:52:16;;;;;;;11.38;10.73;;;;;;;;;;5027048;28;20382;-57
2024/01/09 06:54:41;;;;;;;11.40;10.77;;;;;;;;;;5029518;28;20430;-55
2024/01/09 06:57:07;;;;;;;11.13;10.52;;;;;;;;;;5025851;28;20053;-57
2024/01/09 06:59:32;;;;;;;10.40;9.80;;;;;;;;;;5027489;28;20062;-57
2024/01/09 07:01:57;;;;;;;10.38;9.82;;;;;;;;;;5023874;28;20022;-55
2024/01/09 07:04:22;;;;;;;10.32;9.82;;;;;;;;;;5028910;28;20017;-56
2024/01/09 07:06:48;;;;;;;10.63;10.02;;;;;;;;;;5024073;28;20506;-57
2024/01/09 07:09:13;;;;;;;10.38;9.80;;;;;;;;;;5031822;28;20488;-56
2024/01/09 07:11:39;;;;;;;10.20;9.70;;;;;;;;;;5035308;28;20025;-57
2024/01/09 07:14:04;;;;;;;10.80;10.20;;;;;;;;;;5032207;28;20473;-57
2024/01/09 07:16:29;;;;;;;10.48;9.98;;;;;;;;;;5029069;28;20570;-59
2024/01/09 07:18:55;;;;;;;10.82;10.23;;;;;;;;;;5027587;28;20459;-54
2024/01/09 07:21:20;;;;;;;10.27;9.77;;;;;;;;;;5030490;28;20033;-56
2024/01/09 07:23:47;;;;;;;10.90;10.32;;;;;;;;;;5029810;28;20059;-57
2024/01/09 07:26:13;;;;;;;11.43;10.82;;;;;;;;;;5023601;28;20029;-57
2024/01/09 07:28:38;;;;;;;10.68;10.18;;;;;;;;;;5030797;28;20021;-55
2024/01/09 07:31:03;;;;;;;11.07;10.57;;;;;;;;;;5026460;28;20029;-57
2024/01/09 07:33:29;;;;;;;11.00;10.50;;;;;;;;;;5023579;28;20435;-57
2024/01/09 07:35:54;;;;;;;10.95;10.45;;;;;;;;;;5022352;28;20028;-57
2024/01/09 07:38:24;;;;;;;11.20;10.70;;;;;;;;;;5027124;28;20017;-58
2024/01/09 07:40:49;;;;;;;12.68;11.98;;;;;;;;;;5024591;28;20029;-58
2024/01/09 07:43:15;;;;;;;12.10;11.50;;;;;;;;;;5032556;28;20080;-58
2024/01/09 07:45:41;;;;;;;12.63;11.93;;;;;;;;;;5031240;28;20036;-56
2024/01/09 07:48:06;;;;;;;11.75;11.15;;;;;;;;;;5031770;28;20025;-59
2024/01/09 07:50:32;;;;;;;11.18;10.68;;;;;;;;;;5038089;28;20017;-58
2024/01/09 07:52:58;;;;;;;11.50;10.98;;;;;;;;;;5032457;28;20025;-59
2024/01/09 07:55:23;;;;;;;12.75;12.05;;;;;;;;;;5020658;28;20025;-64
2024/01/09 07:57:48;;;;;;;11.32;10.82;;;;;;;;;;5026347;28;20025;-64
2024/01/09 08:00:14;;;;;;;11.43;10.90;;;;;;;;;;5027884;28;20021;-64
2024/01/09 08:02:39;;;;;;;11.07;10.57;;;;;;;;;;5028940;28;20018;-61
2024/01/09 08:05:05;;;;;;;11.30;10.80;;;;;;;;;;5029173;28;20025;-64
2024/01/09 08:07:30;;;;;;;11.57;11.07;;;;;;;;;;5036754;28;20079;-64
2024/01/09 08:09:55;;;;;;;13.55;12.85;;;;;;;;;;5025589;28;20029;-63
2024/01/09 08:12:21;;;;;;;12.20;11.60;;;;;;;;;;5024426;28;20022;-62
2024/01/09 08:14:48;;;;;;;12.45;11.85;;;;;;;;;;5026530;28;20029;-63
2024/01/09 08:17:14;;;;;;;11.77;11.23;;;;;;;;;;5030558;28;20098;-63
2024/01/09 08:19:39;;;;;;;11.88;11.27;;;;;;;;;;5036746;28;20021;-67
2024/01/09 08:22:04;;;;;;;11.48;10.98;;;;;;;;;;5030980;28;20032;-64
2024/01/09 08:24:31;;;;;;;11.27;10.77;;;;;;;;;;5023908;28;20025;-62
2024/01/09 08:26:57;;;;;;;11.60;11.10;;;;;;;;;;5030015;28;20401;-62
2024/01/09 08:29:26;;;;;;;11.57;11.07;;;;;;;;;;5034432;28;20022;-63
2024/01/09 08:31:52;;;;;;;11.45;10.95;;;;;;;;;;5020965;28;20084;-64
2024/01/09 08:34:17;;;;;;;12.18;11.57;;;;;;;;;;5039402;28;20029;-63
2024/01/09 08:36:43;;;;;;;11.75;11.25;;;;;;;;;;5024534;28;20632;-65
2024/01/09 08:39:15;;;;;;;12.13;11.52;;;;;;;;;;5031765;28;20021;-63
2024/01/09 08:41:41;;;;;;;12.35;11.75;;;;;;;;;;5027555;28;20057;-63
2024/01/09 08:44:07;;;;;;;12.35;11.75;;;;;;;;;;5023089;28;20024;-62
2024/01/09 08:46:32;;;;;;;12.38;11.77;;;;;;;;;;5018057;28;20033;-64
2024/01/09 08:48:57;;;;;;;12.23;11.63;;;;;;;;;;5026273;28;20025;-64
2024/01/09 08:51:23;;;;;;;11.70;11.20;;;;;;;;;;5023463;28;20544;-65
2024/01/09 08:53:48;;;;;;;11.68;11.18;;;;;;;;;;5024700;28;20029;-62
2024/01/09 08:56:14;;;;;;;12.30;11.70;;;;;;;;;;5028836;28;20485;-63
2024/01/09 08:58:40;;;;;;;12.10;11.50;;;;;;;;;;5016873;28;20034;-59
2024/01/09 09:01:05;;;;;;;11.90;11.30;;;;;;;;;;5025233;28;20021;-63
2024/01/09 09:03:30;;;;;;;11.73;11.20;;;;;;;;;;5015011;28;20060;-64
2024/01/09 09:05:59;;;;;;;11.90;11.35;;;;;;;;;;5031666;28;20111;-63
2024/01/09 09:08:25;;;;;;;11.88;11.32;;;;;;;;;;5028132;28;20010;-63
2024/01/09 09:10:50;;;;;;;12.63;12.02;;;;;;;;;;5024493;28;20060;-63
2024/01/09 09:13:16;;;;;;;11.82;11.30;;;;;;;;;;5030992;28;20620;-64
2024/01/09 09:15:41;;;;;;;11.70;11.20;;;;;;;;;;5043275;28;20025;-64
2024/01/09 09:18:06;;;;;;;13.95;13.25;;;;;;;;;;5026493;28;20068;-62
2024/01/09 09:20:32;;;;;;;12.10;11.50;;;;;;;;;;5035651;28;20056;-62
2024/01/09 09:22:58;;;;;;;12.07;11.48;;;;;;;;;;5029823;28;20071;-62
2024/01/09 09:25:23;;;;;;;11.68;11.18;;;;;;;;;;5025433;28;20039;-64
2024/01/09 09:27:49;;;;;;;11.57;11.07;;;;;;;;;;5031088;28;20100;-63
2024/01/09 09:30:14;;;;;;;11.25;10.75;;;;;;;;;;5032048;28;20026;-62
2024/01/09 09:32:40;;;;;;;12.00;11.40;;;;;;;;;;5029677;28;20646;-64
2024/01/09 09:35:05;;;;;;;12.32;11.73;;;;;;;;;;5024812;28;20052;-61
2024/01/09 09:37:30;;;;;;;11.70;11.10;;;;;;;;;;5018856;28;20038;-63
2024/01/09 09:39:56;;;;;;;12.27;11.68;;;;;;;;;;5023459;28;20018;-64
2024/01/09 09:42:22;;;;;;;12.70;12.10;;;;;;;;;;5027067;28;20049;-64
2024/01/09 09:44:50;;;;;;;13.95;13.25;;;;;;;;;;5022714;28;20083;-63
2024/01/09 09:47:17;;;;;;;14.40;13.63;;;;;;;;;;5030492;28;20025;-64
2024/01/09 09:49:42;;;;;;;14.40;13.60;;;;;;;;;;5028648;28;20055;-64
2024/01/09 09:52:08;;;;;;;14.65;13.85;;;;;;;;;;5026431;28;20175;-64
2024/01/09 09:54:35;;;;;;;15.07;14.27;;;;;;;;;;5027611;28;20536;-63
2024/01/09 09:57:00;;;;;;;15.02;14.23;;;;;;;;;;5032913;28;20393;-63
2024/01/09 09:59:25;;;;;;;15.63;14.73;;;;;;;;;;5034522;28;20025;-64
2024/01/09 10:01:51;;;;;;;14.77;13.98;;;;;;;;;;5029446;28;20160;-63
2024/01/09 10:04:35;;;;;;;15.00;14.20;;;;;;;;;;5029429;28;20026;-63
2024/01/09 10:07:03;;;;;;;16.08;15.07;;;;;;;;;;5029901;28;20083;-64
2024/01/09 10:09:31;;;;;;;15.02;14.23;;;;;;;;;;5024589;28;20037;-64
2024/01/09 10:11:57;;;;;;;15.60;14.73;;;;;;;;;;5032858;28;20025;-63
2024/01/09 10:14:22;;;;;;;14.98;14.18;;;;;;;;;;5031341;28;20036;-63
2024/01/09 10:16:53;;;;;;;17.90;16.70;;;;;;;;;;5027333;28;20054;-63
2024/01/09 10:19:18;;;;;;;16.27;15.38;;;;;;;;;;5027144;28;20053;-64
2024/01/09 10:21:44;;;;;;;17.15;16.08;;;;;;;;;;5044074;28;20053;-63
2024/01/09 10:24:09;;;;;;;16.27;15.35;;;;;;;;;;5031570;28;20031;-64
2024/01/09 10:26:35;;;;;;;16.25;15.32;;;;;;;;;;5030751;28;20026;-64
2024/01/09 10:29:01;;;;;;;17.52;16.42;;;;;;;;;;5032376;28;20025;-63
2024/01/09 10:31:26;;;;;;;15.80;15.00;;;;;;;;;;5029042;28;20752;-64
2024/01/09 10:33:53;;;;;;;15.57;14.77;;;;;;;;;;5033897;28;20188;-64
2024/01/09 10:36:19;;;;;;;16.17;15.27;;;;;;;;;;5025666;28;20469;-64
2024/01/09 10:38:45;;;;;;;16.25;15.35;;;;;;;;;;5028721;28;20044;-64
2024/01/09 10:41:17;;;;;;;15.40;14.57;;;;;;;;;;5029490;28;20132;-65
2024/01/09 10:43:43;;;;;;;15.75;14.85;;;;;;;;;;5023789;28;20108;-64
2024/01/09 10:46:08;;;;;;;15.32;14.43;;;;;;;;;;5024254;28;20072;-63
2024/01/09 10:48:34;;;;;;;19.02;17.63;;;;;;;;;;5020181;28;20520;-62
2024/01/09 10:51:00;;;;;;;16.60;15.60;;;;;;;;;;5018406;28;20512;-63
2024/01/09 10:53:27;;;;;;;16.05;15.15;;;;;;;;;;5030407;28;20105;-62
2024/01/09 10:55:54;;;;;;;16.08;15.18;;;;;;;;;;5029645;28;20502;-62
2024/01/09 10:58:20;;;;;;;16.95;15.95;;;;;;;;;;5032159;28;20087;-63
2024/01/09 11:00:45;;;;;;;16.33;15.43;;;;;;;;;;5032365;28;20022;-63
2024/01/09 11:03:11;;;;;;;20.88;19.27;;;;;;;;;;5027320;28;20056;-64
2024/01/09 11:05:37;;;;;;;16.05;15.15;;;;;;;;;;5022202;28;20026;-63
2024/01/09 11:08:05;;;;;;;18.05;16.95;;;;;;;;;;5031980;28;20439;-63
2024/01/09 11:10:32;;;;;;;18.35;17.20;;;;;;;;;;5027435;28;20106;-61
2024/01/09 11:12:58;;;;;;;17.70;16.70;;;;;;;;;;5032091;28;20017;-63
2024/01/09 11:15:26;;;;;;;16.60;15.70;;;;;;;;;;5033932;28;20024;-60
2024/01/09 11:18:12;;;;;;;15.95;15.05;;;;;;;;;;5026646;28;20046;-62
2024/01/09 11:20:37;;;;;;;17.60;16.50;;;;;;;;;;5036110;28;20028;-62
2024/01/09 11:23:03;;;;;;;17.23;16.20;;;;;;;;;;5034194;28;20025;-61
2024/01/09 11:25:33;;;;;;;15.98;15.07;;;;;;;;;;5031794;28;20032;-61
2024/01/09 11:28:00;;;;;;;16.55;15.63;;;;;;;;;;5037624;28;20028;-62
2024/01/09 11:30:29;;;;;;;15.52;14.73;;;;;;;;;;5023933;28;20041;-63
2024/01/09 11:32:57;;;;;;;18.33;17.13;;;;;;;;;;5035182;28;20048;-61
2024/01/09 11:35:25;;;;;;;16.15;15.25;;;;;;;;;;5018817;28;20021;-62
2024/01/09 11:37:51;;;;;;;15.30;14.48;;;;;;;;;;5020193;28;20064;-62
2024/01/09 11:40:17;;;;;;;15.88;14.98;;;;;;;;;;5022789;28;20063;-63
2024/01/09 11:42:44;;;;;;;15.27;14.43;;;;;;;;;;5026222;28;20056;-63
2024/01/09 11:45:11;;;;;;;17.25;16.27;;;;;;;;;;5026048;28;20085;-61
2024/01/09 11:47:40;;;;;;;15.57;14.77;;;;;;;;;;5025720;28;20040;-62
2024/01/09 11:50:09;;;;;;;17.00;16.00;;;;;;;;;;5026556;28;20035;-64
2024/01/09 11:52:35;;;;;;;16.42;15.52;;;;;;;;;;5031169;28;20053;-63
2024/01/09 11:55:02;;;;;;;17.55;16.52;;;;;;;;;;5025746;28;20065;-63
2024/01/09 11:57:28;;;;;;;17.35;16.35;;;;;;;;;;5026274;28;20030;-63
2024/01/09 11:59:53;;;;;;;15.48;14.65;;;;;;;;;;5031218;28;20076;-63
2024/01/09 12:02:19;;;;;;;14.98;14.18;;;;;;;;;;5022361;28;20121;-63
2024/01/09 12:04:45;;;;;;;17.08;16.08;;;;;;;;;;5033507;28;20113;-63
2024/01/09 12:07:12;;;;;;;16.58;15.65;;;;;;;;;;5024595;28;20074;-63
2024/01/09 12:09:37;;;;;;;15.43;14.63;;;;;;;;;;5021862;28;20422;-63
2024/01/09 12:12:03;;;;;;;16.95;15.95;;;;;;;;;;5024099;28;20068;-63
2024/01/09 12:14:29;;;;;;;15.50;14.60;;;;;;;;;;5028214;28;20477;-63
2024/01/09 12:16:54;;;;;;;14.10;13.40;;;;;;;;;;5021418;28;20049;-63
2024/01/09 12:19:19;;;;;;;14.35;13.65;;;;;;;;;;5021421;28;20108;-63
2024/01/09 12:21:45;;;;;;;14.65;13.85;;;;;;;;;;5027118;28;20024;-64
2024/01/09 12:24:10;;;;;;;15.52;14.63;;;;;;;;;;5027424;28;20092;-63
2024/01/09 12:26:36;;;;;;;17.23;16.13;;;;;;;;;;5027683;28;20028;-63
2024/01/09 12:29:04;;;;;;;16.35;15.32;;;;;;;;;;5028444;28;20040;-64
2024/01/09 12:31:29;;;;;;;15.25;14.45;;;;;;;;;;5028874;28;20025;-63
2024/01/09 12:33:54;;;;;;;15.88;14.98;;;;;;;;;;5027465;28;20049;-64
2024/01/09 12:36:20;;;;;;;15.27;14.48;;;;;;;;;;5027540;28;20567;-63
2024/01/09 12:38:46;;;;;;;15.43;14.63;;;;;;;;;;5031382;28;20060;-61
2024/01/09 12:41:12;;;;;;;15.05;14.15;;;;;;;;;;5015231;28;20026;-59
2024/01/09 12:43:37;;;;;;;16.85;15.82;;;;;;;;;;5021174;28;20018;-59
2024/01/09 12:46:03;;;;;;;17.63;16.48;;;;;;;;;;5028612;28;20124;-60
2024/01/09 12:48:32;;;;;;;15.82;14.95;;;;;;;;;;5023555;28;20397;-59
2024/01/09 12:50:57;;;;;;;15.13;14.32;;;;;;;;;;5030873;28;20120;-59
2024/01/09 12:53:23;;;;;;;18.70;17.48;;;;;;;;;;5030188;28;20234;-63
2024/01/09 12:56:00;;;;;;;15.73;14.82;;;;;;;;;;5028666;28;20571;-64
2024/01/09 12:58:25;;;;;;;16.38;15.43;;;;;;;;;;5024083;28;20389;-63
2024/01/09 13:00:51;;;;;;;15.95;15.15;;;;;;;;;;5025275;28;20025;-64
2024/01/09 13:03:16;;;;;;;17.00;16.00;;;;;;;;;;5023006;28;20622;-64
2024/01/09 13:05:41;;;;;;;15.20;14.40;;;;;;;;;;5023811;28;20396;-64
2024/01/09 13:08:07;;;;;;;16.02;15.13;;;;;;;;;;5030733;28;20033;-62
2024/01/09 13:10:32;;;;;;;15.85;14.95;;;;;;;;;;5017642;28;20038;-63
2024/01/09 13:12:57;;;;;;;15.82;14.93;;;;;;;;;;5023572;28;20029;-63
2024/01/09 13:15:23;;;;;;;16.13;15.23;;;;;;;;;;5024378;28;20393;-63
2024/01/09 13:17:49;;;;;;;18.55;17.35;;;;;;;;;;5022412;28;20049;-65
2024/01/09 13:20:14;;;;;;;16.88;15.85;;;;;;;;;;5023099;28;20545;-63
2024/01/09 13:22:39;;;;;;;16.73;15.80;;;;;;;;;;5028382;28;20126;-63
2024/01/09 13:25:06;;;;;;;15.80;14.90;;;;;;;;;;5027570;28;20040;-64
2024/01/09 13:27:32;;;;;;;17.17;16.17;;;;;;;;;;5028665;28;20049;-63
2024/01/09 13:29:58;;;;;;;15.75;14.85;;;;;;;;;;5024332;28;20453;-63
2024/01/09 13:32:23;;;;;;;14.23;13.52;;;;;;;;;;5027416;28;20141;-63
2024/01/09 13:34:48;;;;;;;13.85;13.15;;;;;;;;;;5030637;28;20108;-63
2024/01/09 13:37:14;;;;;;;15.43;14.63;;;;;;;;;;5020349;28;20032;-63
2024/01/09 13:39:40;;;;;;;15.80;14.95;;;;;;;;;;5030095;28;20104;-63
2024/01/09 13:42:05;;;;;;;16.40;15.50;;;;;;;;;;5029614;28;20029;-63
2024/01/09 13:44:31;;;;;;;15.60;14.80;;;;;;;;;;5029242;28;20033;-63
2024/01/09 13:46:58;;;;;;;15.77;14.93;;;;;;;;;;5023765;28;20033;-63
2024/01/09 13:49:24;;;;;;;15.45;14.65;;;;;;;;;;5031792;28;20026;-63
2024/01/09 13:51:51;;;;;;;16.45;15.65;;;;;;;;;;5025149;28;20029;-63
2024/01/09 13:54:16;;;;;;;16.50;15.60;;;;;;;;;;5020939;28;20069;-62
2024/01/09 13:56:42;;;;;;;17.15;16.25;;;;;;;;;;5029334;28;20072;-62
2024/01/09 13:59:07;;;;;;;16.98;16.08;;;;;;;;;;5026794;28;20103;-63
2024/01/09 14:01:32;;;;;;;17.40;16.42;;;;;;;;;;5025159;28;20128;-64
2024/01/09 14:03:57;;;;;;;16.67;15.77;;;;;;;;;;5029267;28;20026;-64
2024/01/09 14:06:25;;;;;;;16.85;16.02;;;;;;;;;;5030411;28;20021;-63
2024/01/09 14:08:50;;;;;;;16.98;16.08;;;;;;;;;;5027605;28;20377;-61